Time;durP1;ratioP1;P1;durP2;ratioP2;P2;SDS_P1;SDS_P2;PMS_P1;PMS_P2;Temp;Humidity;BMP_temperature;BMP_pressure;BME280_temperature;BME280_humidity;BME280_pressure;Samples;Min_cycle;Max_cycle;Signal;HPM_P1;HPM_P2
2023/05/04 00:01:31;;;;;;;;;;;;;;;21.25;38.91;102453.75;5133194;28;19912;-75
2023/05/04 00:03:56;;;;;;;;;;;;;;;21.24;38.83;102452.06;5132513;28;19923;-75
2023/05/04 00:06:22;;;;;;;;;;;;;;;21.22;39.08;102446.78;5129966;28;20209;-75
2023/05/04 00:08:47;;;;;;;;;;;;;;;21.21;39.01;102445.09;5130675;28;20318;-75
2023/05/04 00:11:12;;;;;;;;;;;;;;;21.20;39.02;102446.09;5130151;28;19920;-75
2023/05/04 00:13:37;;;;;;;;;;;;;;;21.19;39.11;102438.09;5130965;28;19918;-74
2023/05/04 00:16:02;;;;;;;;;;;;;;;21.17;39.21;102435.56;5132412;28;19924;-75
2023/05/04 00:18:27;;;;;;;;;;;;;;;21.16;39.05;102430.31;5136898;28;19911;-75
2023/05/04 00:20:53;;;;;;;;;;;;;;;21.15;39.00;102429.44;5129384;28;19912;-75
2023/05/04 00:23:18;;;;;;;;;;;;;;;21.14;39.06;102430.44;5135870;28;19922;-75
2023/05/04 00:25:43;;;;;;;;;;;;;;;21.13;38.89;102428.72;5131865;28;19912;-74
2023/05/04 00:28:08;;;;;;;;;;;;;;;21.13;39.05;102422.47;5111002;28;19912;-75
2023/05/04 00:30:33;;;;;;;;;;;;;;;21.11;39.21;102419.94;5133487;28;19915;-75
2023/05/04 00:32:58;;;;;;;;;;;;;;;21.10;39.13;102418.19;5130455;28;19990;-75
2023/05/04 00:35:24;;;;;;;;;;;;;;;21.09;38.78;102408.38;5124190;28;20292;-74
2023/05/04 00:37:49;;;;;;;;;;;;;;;21.08;39.13;102405.84;5128926;27;19933;-75
2023/05/04 00:40:15;;;;;;;;;;;;;;;21.06;39.15;102402.41;5133457;27;19966;-75
2023/05/04 00:42:40;;;;;;;;;;;;;;;21.06;39.10;102402.41;5129736;28;20408;-75
2023/05/04 00:45:05;;;;;;;;;;;;;;;21.05;39.13;102398.84;5115471;28;20422;-75
2023/05/04 00:47:30;;;;;;;;;;;;;;;21.03;38.98;102400.03;5131342;27;19916;-75
2023/05/04 00:49:56;;;;;;;;;;;;;;;21.02;39.25;102398.28;5140497;27;19937;-75
2023/05/04 00:52:21;;;;;;;;;;;;;;;21.01;38.88;102396.59;5128389;27;19981;-75
2023/05/04 00:54:46;;;;;;;;;;;;;;;20.99;38.83;102391.34;5129529;27;19936;-75
2023/05/04 00:57:12;;;;;;;;;;;;;;;20.97;38.96;102383.38;5117848;27;19922;-75
2023/05/04 00:59:38;;;;;;;;;;;;;;;20.97;39.12;102382.50;5132367;27;19961;-74
2023/05/04 01:02:03;;;;;;;;;;;;;;;20.96;38.89;102387.06;5133215;27;19916;-75
2023/05/04 01:04:28;;;;;;;;;;;;;;;20.94;39.05;102383.69;5116716;27;19950;-75
2023/05/04 01:07:03;;;;;;;;;;;;;;;20.94;39.17;102378.28;5134492;27;20084;-75
2023/05/04 01:09:36;;;;;;;;;;;;;;;20.93;39.35;102373.00;5118071;28;19943;-75
2023/05/04 01:12:01;;;;;;;;;;;;;;;20.91;39.01;102372.28;5120718;27;19998;-75
2023/05/04 01:14:27;;;;;;;;;;;;;;;20.89;39.03;102367.00;5134371;27;20384;-75
2023/05/04 01:16:53;;;;;;;;;;;;;;;20.89;39.29;102367.00;5135215;27;19915;-75
2023/05/04 01:19:18;;;;;;;;;;;;;;;20.88;39.01;102361.75;5119952;27;19947;-75
2023/05/04 01:21:43;;;;;;;;;;;;;;;20.88;38.89;102364.47;5133672;27;20190;-73
2023/05/04 01:24:08;;;;;;;;;;;;;;;20.85;39.25;102359.34;5133855;27;19922;-75
2023/05/04 01:26:37;;;;;;;;;;;;;;;20.84;39.26;102369.31;5114185;28;19934;-75
2023/05/04 01:29:05;;;;;;;;;;;;;;;20.83;39.09;102359.50;5132747;27;20441;-75
2023/05/04 01:31:31;;;;;;;;;;;;;;;20.83;39.00;102361.34;5134303;27;19919;-75
2023/05/04 01:33:56;;;;;;;;;;;;;;;20.82;39.26;102354.25;5115936;27;19917;-75
2023/05/04 01:36:21;;;;;;;;;;;;;;;20.80;39.02;102348.97;5110920;27;19916;-75
2023/05/04 01:38:53;;;;;;;;;;;;;;;20.80;39.22;102348.97;5116299;27;19919;-75
2023/05/04 01:41:19;;;;;;;;;;;;;;;20.78;39.00;102345.59;5134528;27;19916;-74
2023/05/04 01:43:44;;;;;;;;;;;;;;;20.78;39.21;102347.44;5132337;27;19918;-74
2023/05/04 01:46:09;;;;;;;;;;;;;;;20.77;39.01;102351.97;5121864;27;20349;-75
2023/05/04 01:48:34;;;;;;;;;;;;;;;20.75;39.25;102356.69;5111566;27;19936;-75
2023/05/04 01:50:59;;;;;;;;;;;;;;;20.74;39.01;102349.56;5142098;27;19962;-74
2023/05/04 01:53:25;;;;;;;;;;;;;;;20.73;39.07;102350.56;5134347;27;20333;-75
2023/05/04 01:55:50;;;;;;;;;;;;;;;20.72;39.01;102360.50;5131696;27;19919;-74
2023/05/04 01:58:17;;;;;;;;;;;;;;;20.71;39.18;102360.66;5134719;27;20014;-75
2023/05/04 02:00:42;;;;;;;;;;;;;;;20.69;39.13;102355.41;5118822;27;19937;-75
2023/05/04 02:03:08;;;;;;;;;;;;;;;20.68;38.95;102361.78;5101411;28;20373;-75
2023/05/04 02:05:33;;;;;;;;;;;;;;;20.68;39.20;102363.66;5127983;27;19915;-74
2023/05/04 02:07:58;;;;;;;;;;;;;;;20.66;38.97;102357.56;5135483;27;19923;-75
2023/05/04 02:10:23;;;;;;;;;;;;;;;20.65;39.04;102351.31;5126571;27;19983;-74
2023/05/04 02:12:48;;;;;;;;;;;;;;;20.64;39.03;102349.56;5138641;27;19919;-76
2023/05/04 02:15:14;;;;;;;;;;;;;;;20.62;39.05;102354.28;5133410;27;19927;-75
2023/05/04 02:17:39;;;;;;;;;;;;;;;20.62;39.07;102351.59;5134820;27;19942;-75
2023/05/04 02:20:04;;;;;;;;;;;;;;;20.61;39.10;102346.34;5136739;27;19911;-75
2023/05/04 02:22:29;;;;;;;;;;;;;;;20.60;39.12;102342.78;5131941;27;19911;-75
2023/05/04 02:24:55;;;;;;;;;;;;;;;20.59;39.20;102343.75;5134198;27;19970;-75
2023/05/04 02:27:20;;;;;;;;;;;;;;;20.59;39.01;102337.50;5130539;27;19912;-72
2023/05/04 02:29:45;;;;;;;;;;;;;;;20.57;39.12;102336.81;5131823;27;19915;-75
2023/05/04 02:32:10;;;;;;;;;;;;;;;20.56;39.26;102333.25;5132230;27;19912;-75
2023/05/04 02:34:36;;;;;;;;;;;;;;;20.55;39.29;102327.97;5133455;27;19957;-75
2023/05/04 02:37:01;;;;;;;;;;;;;;;20.53;39.29;102330.84;5129180;27;19916;-75
2023/05/04 02:39:26;;;;;;;;;;;;;;;20.53;39.15;102325.44;5134497;27;19923;-75
2023/05/04 02:41:51;;;;;;;;;;;;;;;20.52;39.04;102326.44;5134859;27;19911;-75
2023/05/04 02:44:16;;;;;;;;;;;;;;;20.52;39.19;102317.44;5134256;27;19987;-75
2023/05/04 02:46:42;;;;;;;;;;;;;;;20.50;39.24;102314.91;5136606;27;19919;-75
2023/05/04 02:49:07;;;;;;;;;;;;;;;20.49;39.05;102315.91;5129565;27;19920;-75
2023/05/04 02:51:32;;;;;;;;;;;;;;;20.47;39.11;102316.03;5119790;27;19912;-75
2023/05/04 02:53:57;;;;;;;;;;;;;;;20.47;39.32;102312.44;5130765;27;19975;-75
2023/05/04 02:56:23;;;;;;;;;;;;;;;20.45;39.22;102309.91;5130890;27;19916;-75
2023/05/04 02:58:48;;;;;;;;;;;;;;;20.44;39.20;102313.63;5131009;27;19921;-75
2023/05/04 03:01:13;;;;;;;;;;;;;;;20.43;39.08;102311.91;5131897;27;20014;-74
2023/05/04 03:03:39;;;;;;;;;;;;;;;20.43;38.98;102308.34;5129641;27;19934;-74
2023/05/04 03:06:04;;;;;;;;;;;;;;;20.42;39.14;102310.19;5131104;27;19912;-75
2023/05/04 03:08:29;;;;;;;;;;;;;;;20.41;39.36;102313.91;5136237;27;19916;-75
2023/05/04 03:10:54;;;;;;;;;;;;;;;20.40;39.13;102306.78;5127829;27;19923;-75
2023/05/04 03:13:20;;;;;;;;;;;;;;;20.39;39.21;102297.00;5139707;27;19937;-74
2023/05/04 03:15:45;;;;;;;;;;;;;;;20.38;39.37;102297.97;5131959;27;20395;-74
2023/05/04 03:18:10;;;;;;;;;;;;;;;20.37;39.05;102298.97;5133147;27;19923;-75
2023/05/04 03:20:35;;;;;;;;;;;;;;;20.36;39.18;102301.81;5133772;27;19922;-74
2023/05/04 03:23:01;;;;;;;;;;;;;;;20.35;39.24;102298.28;5130452;27;19912;-75
2023/05/04 03:25:26;;;;;;;;;;;;;;;20.34;39.41;102299.25;5130378;27;19919;-74
2023/05/04 03:27:51;;;;;;;;;;;;;;;20.33;39.31;102291.31;5129749;27;19912;-75
2023/05/04 03:30:16;;;;;;;;;;;;;;;20.32;39.20;102300.41;5130967;27;19920;-75
2023/05/04 03:32:41;;;;;;;;;;;;;;;20.31;39.28;102291.47;5129578;27;19918;-75
2023/05/04 03:35:08;;;;;;;;;;;;;;;20.30;39.01;102295.13;5134868;27;19934;-75
2023/05/04 03:37:33;;;;;;;;;;;;;;;20.29;39.32;102287.19;5132126;27;20027;-75
2023/05/04 03:39:58;;;;;;;;;;;;;;;20.28;39.25;102293.59;5123880;27;19919;-75
2023/05/04 03:42:23;;;;;;;;;;;;;;;20.27;39.34;102286.50;5134257;27;20427;-75
2023/05/04 03:44:48;;;;;;;;;;;;;;;20.26;38.97;102287.47;5129739;27;19912;-75
2023/05/04 03:47:13;;;;;;;;;;;;;;;20.25;39.09;102280.38;5134564;27;19936;-75
2023/05/04 03:49:39;;;;;;;;;;;;;;;20.23;39.06;102273.28;5112609;27;19916;-75
2023/05/04 03:52:04;;;;;;;;;;;;;;;20.22;39.04;102276.13;5130514;27;19969;-75
2023/05/04 03:54:29;;;;;;;;;;;;;;;20.21;39.31;102272.53;5111645;28;20026;-75
2023/05/04 03:56:54;;;;;;;;;;;;;;;20.20;39.25;102272.69;5131869;27;19918;-75
2023/05/04 03:59:20;;;;;;;;;;;;;;;20.20;39.17;102270.00;5130308;28;19912;-75
2023/05/04 04:01:45;;;;;;;;;;;;;;;20.18;39.22;102270.16;5130966;28;19977;-75
2023/05/04 04:04:10;;;;;;;;;;;;;;;20.18;39.09;102270.16;5130264;28;19919;-75
2023/05/04 04:06:35;;;;;;;;;;;;;;;20.17;39.53;102268.44;5134856;28;20352;-75
2023/05/04 04:09:00;;;;;;;;;;;;;;;20.16;39.37;102264.03;5136116;28;19922;-75
2023/05/04 04:11:26;;;;;;;;;;;;;;;20.15;39.16;102265.03;5128857;28;19933;-74
2023/05/04 04:13:51;;;;;;;;;;;;;;;20.15;39.35;102275.84;5115368;28;19985;-75
2023/05/04 04:16:16;;;;;;;;;;;;;;;20.14;39.16;102270.59;5128750;28;19920;-75
2023/05/04 04:18:41;;;;;;;;;;;;;;;20.13;39.15;102266.16;5131093;28;19915;-74
2023/05/04 04:21:08;;;;;;;;;;;;;;;20.13;39.11;102274.25;5113108;28;19915;-75
2023/05/04 04:23:33;;;;;;;;;;;;;;;20.12;39.35;102272.56;5136342;27;20333;-73
2023/05/04 04:26:00;;;;;;;;;;;;;;;20.11;39.34;102274.41;5134568;27;19978;-72
2023/05/04 04:28:25;;;;;;;;;;;;;;;20.11;39.84;102266.31;5132088;27;19918;-74
2023/05/04 04:30:50;;;;;;;;;;;;;;;20.11;39.95;102263.63;5135488;27;19967;-73
2023/05/04 04:33:16;;;;;;;;;;;;;;;20.12;39.94;102264.47;5134083;27;19950;-73
2023/05/04 04:35:41;;;;;;;;;;;;;;;20.11;40.17;102271.72;5138795;27;19916;-72
2023/05/04 04:38:06;;;;;;;;;;;;;;;20.11;40.13;102262.78;5109814;27;20281;-73
2023/05/04 04:40:31;;;;;;;;;;;;;;;20.11;40.00;102265.47;5137773;27;19965;-73
2023/05/04 04:42:56;;;;;;;;;;;;;;;20.10;40.18;102261.91;5134473;27;19918;-73
2023/05/04 04:45:22;;;;;;;;;;;;;;;20.10;40.00;102259.22;5133164;27;19915;-74
2023/05/04 04:47:47;;;;;;;;;;;;;;;20.09;40.34;102257.53;5137158;27;19918;-75
2023/05/04 04:50:13;;;;;;;;;;;;;;;20.10;40.08;102259.22;5135372;27;19920;-75
2023/05/04 04:52:40;;;;;;;;;;;;;;;20.09;40.21;102259.34;5130378;27;20325;-73
2023/05/04 04:55:06;;;;;;;;;;;;;;;20.10;40.43;102269.16;5133965;27;19933;-75
2023/05/04 04:57:31;;;;;;;;;;;;;;;20.09;40.40;102267.44;5136512;27;19961;-73
2023/05/04 04:59:56;;;;;;;;;;;;;;;20.09;40.21;102264.75;5115227;28;21002;-70
2023/05/04 05:02:21;;;;;;;;;;;;;;;20.08;40.44;102269.28;5136682;27;19911;-72
2023/05/04 05:04:47;;;;;;;;;;;;;;;20.10;40.52;102266.47;5132853;27;19942;-74
2023/05/04 05:07:12;;;;;;;;;;;;;;;20.10;40.42;102266.47;5133182;27;19963;-71
2023/05/04 05:09:37;;;;;;;;;;;;;;;20.09;40.36;102273.72;5136117;27;20038;-74
2023/05/04 05:12:03;;;;;;;;;;;;;;;20.09;40.57;102268.31;5133281;27;20119;-74
2023/05/04 05:14:30;;;;;;;;;;;;;;;20.09;40.43;102267.44;5135959;27;20291;-74
2023/05/04 05:16:55;;;;;;;;;;;;;;;20.09;40.69;102262.03;5131510;27;19912;-74
2023/05/04 05:19:20;;;;;;;;;;;;;;;20.09;40.67;102262.03;5104201;28;19939;-74
2023/05/04 05:21:46;;;;;;;;;;;;;;;20.08;40.69;102255.78;5134281;27;20003;-74
2023/05/04 05:24:11;;;;;;;;;;;;;;;20.07;40.59;102254.09;5135696;27;20276;-74
2023/05/04 05:26:37;;;;;;;;;;;;;;;20.08;40.67;102246.84;5132125;27;19934;-73
2023/05/04 05:29:02;;;;;;;;;;;;;;;20.08;40.46;102247.69;5117169;27;19916;-72
2023/05/04 05:31:27;;;;;;;;;;;;;;;20.07;40.78;102246.00;5135997;27;20006;-72
2023/05/04 05:33:52;;;;;;;;;;;;;;;20.07;40.39;102253.25;5129215;27;20536;-72
2023/05/04 05:36:17;;;;;;;;;;;;;;;20.06;40.34;102252.41;5137115;27;19964;-72
2023/05/04 05:38:43;;;;;;;;;;;;;;;20.06;40.54;102249.69;5135281;27;19983;-73
2023/05/04 05:41:08;;;;;;;;;;;;;;;20.07;40.21;102247.84;5118820;27;19912;-72
2023/05/04 05:43:33;;;;;;;;;;;;;;;20.05;40.40;102248.00;5115403;27;20041;-72
2023/05/04 05:45:59;;;;;;;;;;;;;;;20.06;40.33;102240.75;5132127;27;19972;-72
2023/05/04 05:48:24;;;;;;;;;;;;;;;20.05;40.46;102245.31;5119165;27;19943;-72
2023/05/04 05:50:49;;;;;;;;;;;;;;;20.04;40.52;102245.44;5132365;27;19915;-74
2023/05/04 05:53:14;;;;;;;;;;;;;;;20.04;40.40;102242.72;5132770;27;20399;-72
2023/05/04 05:55:39;;;;;;;;;;;;;;;20.04;40.33;102246.28;5134885;27;19911;-72
2023/05/04 05:58:05;;;;;;;;;;;;;;;20.04;40.38;102245.44;5136877;27;20035;-72
2023/05/04 06:00:30;;;;;;;;;;;;;;;20.03;40.27;102239.19;5137245;27;19972;-73
2023/05/04 06:02:55;;;;;;;;;;;;;;;20.04;40.52;102237.31;5139505;27;20496;-74
2023/05/04 06:05:20;;;;;;;;;;;;;;;20.04;40.28;102237.31;5133127;27;19915;-74
2023/05/04 06:07:45;;;;;;;;;;;;;;;20.03;40.30;102241.88;5135108;27;20583;-74
2023/05/04 06:10:11;;;;;;;;;;;;;;;20.02;40.34;102242.88;5136465;27;19926;-74
2023/05/04 06:12:36;;;;;;;;;;;;;;;20.02;40.10;102245.59;5132071;27;20350;-74
2023/05/04 06:15:01;;;;;;;;;;;;;;;20.02;40.14;102240.19;5132655;27;19923;-74
2023/05/04 06:17:26;;;;;;;;;;;;;;;20.01;39.92;102240.31;5129966;27;19915;-74
2023/05/04 06:19:51;;;;;;;;;;;;;;;20.00;40.15;102239.47;5133198;27;20388;-74
2023/05/04 06:22:17;;;;;;;;;;;;;;;20.00;40.00;102236.75;5131384;27;19912;-69
2023/05/04 06:24:42;;;;;;;;;;;;;;;19.99;40.03;102240.47;5133617;27;19912;-72
2023/05/04 06:27:07;;;;;;;;;;;;;;;19.98;39.89;102225.28;5130134;27;19912;-73
2023/05/04 06:29:32;;;;;;;;;;;;;;;19.98;39.97;102231.50;5137187;27;19919;-72
2023/05/04 06:31:57;;;;;;;;;;;;;;;19.98;40.01;102228.81;5136099;27;19932;-73
2023/05/04 06:34:23;;;;;;;;;;;;;;;19.99;40.17;102229.66;5131273;27;19915;-71
2023/05/04 06:36:48;;;;;;;;;;;;;;;19.99;39.87;102221.56;5137893;27;19908;-74
2023/05/04 06:39:14;;;;;;;;;;;;;;;19.98;40.23;102228.81;5131475;27;19930;-72
2023/05/04 06:41:39;;;;;;;;;;;;;;;20.00;40.15;102225.09;5113946;27;19915;-74
2023/05/04 06:44:05;;;;;;;;;;;;;;;19.99;40.16;102218.88;5131748;27;19916;-74
2023/05/04 06:46:30;;;;;;;;;;;;;;;20.00;40.17;102214.31;5112057;28;19916;-73
2023/05/04 06:48:57;;;;;;;;;;;;;;;20.00;40.30;102198.97;5132656;27;19941;-73
2023/05/04 06:51:22;;;;;;;;;;;;;;;20.00;40.49;102209.75;5138984;27;19936;-73
2023/05/04 06:53:47;;;;;;;;;;;;;;;20.02;40.29;102215.88;5133913;27;20525;-74
2023/05/04 06:56:12;;;;;;;;;;;;;;;20.03;40.45;102211.34;5131798;27;19911;-71
2023/05/04 06:58:37;;;;;;;;;;;;;;;20.02;40.69;102210.47;5137891;27;19916;-68
2023/05/04 07:01:02;;;;;;;;;;;;;;;20.03;40.39;102217.59;5129227;27;20135;-70
2023/05/04 07:03:28;;;;;;;;;;;;;;;20.04;40.52;102215.72;5140654;27;19919;-69
2023/05/04 07:05:53;;;;;;;;;;;;;;;20.05;40.47;102212.03;5132128;27;19919;-69
2023/05/04 07:08:18;;;;;;;;;;;;;;;20.06;40.55;102202.94;5127807;27;19923;-69
2023/05/04 07:10:43;;;;;;;;;;;;;;;20.06;40.75;102202.94;5134186;27;19923;-74
2023/05/04 07:13:12;;;;;;;;;;;;;;;20.06;40.77;102190.31;5130866;27;19916;-74
2023/05/04 07:15:38;;;;;;;;;;;;;;;20.07;40.54;102197.41;5128687;27;19979;-75
2023/05/04 07:18:03;;;;;;;;;;;;;;;20.07;40.85;102200.09;5129619;27;19922;-75
2023/05/04 07:20:28;;;;;;;;;;;;;;;20.08;40.78;102195.53;5131425;27;19915;-75
2023/05/04 07:22:55;;;;;;;;;;;;;;;20.08;40.60;102188.28;5134675;27;19919;-75
2023/05/04 07:25:21;;;;;;;;;;;;;;;20.08;40.45;102182.91;5135595;27;19922;-76
2023/05/04 07:27:47;;;;;;;;;;;;;;;20.09;40.61;102189.13;5129527;27;19971;-75
2023/05/04 07:30:12;;;;;;;;;;;;;;;20.08;40.32;102188.28;5137850;27;20284;-76
2023/05/04 07:32:38;;;;;;;;;;;;;;;20.08;40.52;102179.34;5132830;27;19967;-75
2023/05/04 07:35:03;;;;;;;;;;;;;;;20.08;40.26;102179.34;5123287;27;20030;-76
2023/05/04 07:37:28;;;;;;;;;;;;;;;20.08;40.28;102176.66;5134392;27;19912;-76
2023/05/04 07:39:54;;;;;;;;;;;;;;;20.08;40.39;102173.94;5132611;27;19919;-77
2023/05/04 07:42:19;;;;;;;;;;;;;;;20.08;40.25;102165.84;5116875;27;19973;-76
2023/05/04 07:44:44;;;;;;;;;;;;;;;20.08;40.19;102173.94;5131381;28;19983;-76
2023/05/04 07:47:10;;;;;;;;;;;;;;;20.07;40.44;102173.09;5131784;27;19982;-76
2023/05/04 07:49:35;;;;;;;;;;;;;;;20.07;40.13;102167.69;5129561;27;19919;-76
2023/05/04 07:52:00;;;;;;;;;;;;;;;20.08;40.01;102163.16;5132785;27;19916;-76
2023/05/04 07:54:26;;;;;;;;;;;;;;;20.08;40.50;102166.69;5113039;28;19918;-76
2023/05/04 07:56:51;;;;;;;;;;;;;;;20.07;40.14;102156.91;5132781;27;20329;-75
2023/05/04 07:59:17;;;;;;;;;;;;;;;20.09;40.43;102163.03;5135877;27;20010;-75
2023/05/04 08:01:42;;;;;;;;;;;;;;;20.08;40.12;102158.59;5125312;28;19912;-76
2023/05/04 08:04:07;;;;;;;;;;;;;;;20.09;40.07;102154.91;5133000;28;20446;-76
2023/05/04 08:06:38;;;;;;;;;;;;;;;20.09;40.23;102151.34;5110119;28;19978;-75
2023/05/04 08:09:03;;;;;;;;;;;;;;;20.09;40.12;102146.81;5111305;28;19912;-75
2023/05/04 08:11:28;;;;;;;;;;;;;;;20.09;40.01;102146.81;5131811;28;20419;-76
2023/05/04 08:13:53;;;;;;;;;;;;;;;20.09;40.01;102144.13;5131195;28;19919;-76
2023/05/04 08:16:18;;;;;;;;;;;;;;;20.09;40.32;102149.53;5129431;28;20408;-76
2023/05/04 08:18:44;;;;;;;;;;;;;;;20.10;40.04;102150.38;5129449;28;19920;-76
2023/05/04 08:21:09;;;;;;;;;;;;;;;20.10;40.17;102137.72;5131462;28;19912;-76
2023/05/04 08:23:34;;;;;;;;;;;;;;;20.11;40.18;102144.81;5123036;28;19923;-76
2023/05/04 08:26:00;;;;;;;;;;;;;;;20.11;40.33;102143.97;5117596;28;20409;-76
2023/05/04 08:28:26;;;;;;;;;;;;;;;20.12;40.17;102140.25;5131710;28;19947;-75
2023/05/04 08:30:51;;;;;;;;;;;;;;;20.13;39.93;102136.56;5135857;28;19923;-76
2023/05/04 08:33:16;;;;;;;;;;;;;;;20.13;39.98;102142.81;5130562;28;19920;-76
2023/05/04 08:35:42;;;;;;;;;;;;;;;20.14;39.80;102139.13;5127997;28;19916;-78
2023/05/04 08:38:07;;;;;;;;;;;;;;;20.16;40.10;102147.06;5130421;27;19915;-76
2023/05/04 08:40:33;;;;;;;;;;;;;;;20.16;40.07;102136.28;5128465;28;19923;-77
2023/05/04 08:42:58;;;;;;;;;;;;;;;20.18;39.89;102137.00;5123120;28;19912;-77
2023/05/04 08:45:23;;;;;;;;;;;;;;;20.18;40.00;102129.72;5108532;28;19919;-77
2023/05/04 08:47:48;;;;;;;;;;;;;;;20.18;40.03;102131.59;5132764;28;20034;-75
2023/05/04 08:50:13;;;;;;;;;;;;;;;20.19;40.28;102130.59;5134422;27;19923;-76
2023/05/04 08:52:48;;;;;;;;;;;;;;;20.19;39.99;102126.03;5135820;28;19962;-77
2023/05/04 08:55:13;;;;;;;;;;;;;;;20.20;40.15;102122.31;5130075;28;19912;-78
2023/05/04 08:57:39;;;;;;;;;;;;;;;20.21;40.08;102117.75;5120673;28;19918;-77
2023/05/04 09:00:05;;;;;;;;;;;;;;;20.20;40.02;102116.06;5114313;28;19912;-77
2023/05/04 09:02:30;;;;;;;;;;;;;;;20.21;40.17;102112.38;5106606;28;19915;-76
2023/05/04 09:04:56;;;;;;;;;;;;;;;20.21;40.33;102106.97;5099454;28;19923;-76
2023/05/04 09:07:21;;;;;;;;;;;;;;;20.21;40.40;102106.97;5105556;28;20392;-77
2023/05/04 09:09:47;;;;;;;;;;;;;;;20.21;40.50;102102.41;5131602;27;19927;-78
2023/05/04 09:12:12;;;;;;;;;;;;;;;20.20;40.51;102098.00;5128302;27;19911;-78
2023/05/04 09:14:37;;;;;;;;;;;;;;;20.21;40.52;102096.16;5116826;27;19930;-78
2023/05/04 09:17:11;;;;;;;;;;;;;;;20.21;40.39;102090.75;5114191;27;19922;-78
2023/05/04 09:19:37;;;;;;;;;;;;;;;20.21;40.53;102093.47;5122495;27;19946;-79
2023/05/04 09:22:12;;;;;;;;;;;;;;;20.21;40.64;102096.16;5134467;27;19980;-77
2023/05/04 09:24:37;;;;;;;;;;;;;;;20.20;40.41;102087.22;5126345;27;19916;-78
2023/05/04 09:27:09;;;;;;;;;;;;;;;20.21;40.66;102083.50;5137508;27;19971;-78
2023/05/04 09:29:38;;;;;;;;;;;;;;;20.22;40.59;102084.38;5101328;27;19923;-78
2023/05/04 09:32:03;;;;;;;;;;;;;;;20.22;40.53;102084.38;5115858;27;19919;-78
2023/05/04 09:34:28;;;;;;;;;;;;;;;20.23;40.40;102080.69;5113958;27;19926;-77
2023/05/04 09:37:00;;;;;;;;;;;;;;;20.23;40.81;102080.69;5113720;27;19927;-77
2023/05/04 09:39:25;;;;;;;;;;;;;;;20.24;40.66;102074.28;5116846;28;20575;-78
2023/05/04 09:41:51;;;;;;;;;;;;;;;20.25;40.77;102077.81;5133642;27;19916;-76
2023/05/04 09:44:16;;;;;;;;;;;;;;;20.26;40.62;102076.81;5135582;27;20261;-76
2023/05/04 09:46:41;;;;;;;;;;;;;;;20.25;40.88;102075.97;5114997;27;19947;-77
2023/05/04 09:49:07;;;;;;;;;;;;;;;20.27;40.89;102067.72;5134747;27;20375;-77
2023/05/04 09:51:32;;;;;;;;;;;;;;;20.27;40.82;102068.59;5135077;27;19923;-76
2023/05/04 09:53:57;;;;;;;;;;;;;;;20.27;40.68;102052.38;5120435;27;19912;-75
2023/05/04 09:56:26;;;;;;;;;;;;;;;20.28;40.85;102045.13;5114689;27;19919;-75
2023/05/04 09:58:51;;;;;;;;;;;;;;;20.28;40.68;102048.66;5134783;27;19915;-76
2023/05/04 10:01:16;;;;;;;;;;;;;;;20.30;40.72;102049.34;5132186;27;19923;-76
2023/05/04 10:03:42;;;;;;;;;;;;;;;20.30;40.72;102052.06;5115661;27;19941;-76
2023/05/04 10:06:07;;;;;;;;;;;;;;;20.31;40.79;102047.53;5112764;27;19915;-75
2023/05/04 10:08:33;;;;;;;;;;;;;;;20.31;40.73;102048.38;5132946;27;19919;-71
2023/05/04 10:10:58;;;;;;;;;;;;;;;20.31;40.68;102045.66;5111470;27;19982;-72
2023/05/04 10:13:23;;;;;;;;;;;;;;;20.32;40.60;102036.56;5136558;27;19999;-75
2023/05/04 10:16:07;;;;;;;;;;;;;;;20.34;40.97;102037.25;5134722;27;19927;-74
2023/05/04 10:18:32;;;;;;;;;;;;;;;20.35;40.82;102028.16;5134043;27;19925;-77
2023/05/04 10:20:58;;;;;;;;;;;;;;;20.36;40.77;102021.75;5138727;27;19912;-76
2023/05/04 10:23:26;;;;;;;;;;;;;;;20.38;41.08;102018.88;5131227;27;19922;-76
2023/05/04 10:26:00;;;;;;;;;;;;;;;20.40;40.78;102025.00;5133423;27;20000;-73
2023/05/04 10:28:34;;;;;;;;;;;;;;;20.41;40.99;102016.75;5132672;27;19984;-74
2023/05/04 10:30:59;;;;;;;;;;;;;;;20.43;41.33;102014.75;5133643;27;19938;-72
2023/05/04 10:33:25;;;;;;;;;;;;;;;20.44;41.23;102012.91;5115322;27;19912;-72
2023/05/04 10:35:51;;;;;;;;;;;;;;;20.44;41.04;101997.53;5114500;28;19916;-72
2023/05/04 10:38:16;;;;;;;;;;;;;;;20.46;41.17;101997.38;5130438;27;19919;-71
2023/05/04 10:40:41;;;;;;;;;;;;;;;20.49;41.33;101993.56;5134006;27;19919;-71
2023/05/04 10:43:07;;;;;;;;;;;;;;;20.49;41.21;101989.00;5133797;27;19938;-72
2023/05/04 10:45:38;;;;;;;;;;;;;;;20.52;41.46;101987.84;5131671;27;19912;-74
2023/05/04 10:48:04;;;;;;;;;;;;;;;20.52;41.31;101979.72;5118747;27;19915;-74
2023/05/04 10:50:48;;;;;;;;;;;;;;;20.54;41.57;101984.00;5124974;27;19915;-71
2023/05/04 10:53:14;;;;;;;;;;;;;;;20.55;41.45;101976.72;5118526;27;19911;-74
2023/05/04 10:55:42;;;;;;;;;;;;;;;20.57;41.74;101980.13;5132044;27;19951;-73
2023/05/04 10:58:09;;;;;;;;;;;;;;;20.58;41.62;101973.72;5130809;27;20180;-73
2023/05/04 11:00:39;;;;;;;;;;;;;;;20.58;41.72;101965.63;5132124;27;19947;-74
2023/05/04 11:03:06;;;;;;;;;;;;;;;20.58;41.71;101955.66;5134981;27;20001;-73
2023/05/04 11:05:41;;;;;;;;;;;;;;;20.59;41.83;101951.94;5130703;27;20387;-74
2023/05/04 11:08:13;;;;;;;;;;;;;;;20.60;41.63;101941.97;5132584;27;19912;-75
2023/05/04 11:10:39;;;;;;;;;;;;;;;20.61;41.88;101936.44;5114468;27;19916;-74
2023/05/04 11:13:04;;;;;;;;;;;;;;;20.62;41.75;101929.19;5130648;27;19930;-74
2023/05/04 11:15:30;;;;;;;;;;;;;;;20.62;41.82;101921.91;5119390;27;19919;-74
2023/05/04 11:17:55;;;;;;;;;;;;;;;20.63;41.65;101929.03;5130767;27;19973;-74
2023/05/04 11:20:21;;;;;;;;;;;;;;;20.63;41.69;101926.31;5136116;27;20291;-74
2023/05/04 11:22:47;;;;;;;;;;;;;;;20.64;41.88;101924.47;5112901;28;19916;-74
2023/05/04 11:25:12;;;;;;;;;;;;;;;20.66;41.87;101922.47;5115089;27;19976;-74
2023/05/04 11:27:37;;;;;;;;;;;;;;;20.66;41.94;101920.59;5133904;27;19912;-74
2023/05/04 11:30:05;;;;;;;;;;;;;;;20.67;41.76;101922.28;5131032;27;19916;-74
2023/05/04 11:32:45;;;;;;;;;;;;;;;20.68;41.73;101913.19;5115371;27;19919;-74
2023/05/04 11:35:18;;;;;;;;;;;;;;;20.70;41.84;101915.75;5138223;27;19943;-74
2023/05/04 11:37:44;;;;;;;;;;;;;;;20.71;41.78;101912.03;5115210;27;19919;-74
2023/05/04 11:40:13;;;;;;;;;;;;;;;20.72;42.10;101911.88;5125648;27;20295;-74
2023/05/04 11:42:41;;;;;;;;;;;;;;;20.75;41.84;101901.75;5119555;27;19912;-74
2023/05/04 11:45:09;;;;;;;;;;;;;;;20.75;41.85;101875.59;5130099;27;19954;-74
2023/05/04 11:47:35;;;;;;;;;;;;;;;20.78;41.86;101882.53;5124005;27;19958;-74
2023/05/04 11:50:00;;;;;;;;;;;;;;;20.77;41.92;101876.25;5116774;27;19927;-74
2023/05/04 11:52:29;;;;;;;;;;;;;;;20.75;41.32;101874.72;5110659;28;19919;-74
2023/05/04 11:54:56;;;;;;;;;;;;;;;20.73;41.50;101866.78;5131383;27;19926;-73
2023/05/04 11:57:21;;;;;;;;;;;;;;;20.27;41.86;101785.00;5131027;27;19915;-73
2023/05/04 11:59:47;;;;;;;;;;;;;;;20.78;42.11;101859.06;5118150;27;19933;-74
2023/05/04 12:02:18;;;;;;;;;;;;;;;20.80;42.17;101856.19;5128992;27;19934;-73
2023/05/04 12:04:43;;;;;;;;;;;;;;;20.81;42.04;101845.19;5131677;27;19915;-73
2023/05/04 12:07:08;;;;;;;;;;;;;;;20.83;42.15;101848.63;5128543;28;19964;-74
2023/05/04 12:09:47;;;;;;;;;;;;;;;20.86;42.00;101845.59;5134555;27;20020;-74
2023/05/04 12:12:20;;;;;;;;;;;;;;;20.89;41.95;101844.41;5130160;28;19927;-74
2023/05/04 12:14:52;;;;;;;;;;;;;;;20.90;42.06;101838.88;5120091;28;19928;-74
2023/05/04 12:17:19;;;;;;;;;;;;;;;20.91;42.16;101837.84;5113076;28;19912;-73
2023/05/04 12:19:51;;;;;;;;;;;;;;;20.93;41.93;101837.69;5111512;28;20014;-74
2023/05/04 12:22:16;;;;;;;;;;;;;;;20.95;42.03;101838.38;5122540;28;19911;-73
2023/05/04 12:24:42;;;;;;;;;;;;;;;20.96;41.87;101838.22;5111571;28;19915;-74
2023/05/04 12:27:13;;;;;;;;;;;;;;;20.98;42.20;101838.03;5124688;28;19912;-74
2023/05/04 12:29:39;;;;;;;;;;;;;;;21.00;42.02;101824.41;5113953;28;19917;-73